Time;durP1;ratioP1;P1;durP2;ratioP2;P2;SDS_P1;SDS_P2;PMS_P1;PMS_P2;Temp;Humidity;BMP_temperature;BMP_pressure;BME280_temperature;BME280_humidity;BME280_pressure;Samples;Min_cycle;Max_cycle;Signal;HPM_P1;HPM_P2
2023/01/06 00:00:24;;;;;;;2.88;1.25;;;12.60;99.90;;;;;;5071242;28;20178;-81
2023/01/06 00:02:50;;;;;;;4.15;1.30;;;12.70;99.90;;;;;;5072309;28;20167;-80
2023/01/06 00:05:16;;;;;;;2.45;1.05;;;12.80;99.90;;;;;;5072295;28;20159;-81
2023/01/06 00:07:43;;;;;;;4.45;1.20;;;12.90;99.90;;;;;;5071212;28;20188;-80
2023/01/06 00:10:09;;;;;;;0.95;0.93;;;12.90;99.90;;;;;;5072246;28;20198;-79
2023/01/06 00:12:35;;;;;;;3.13;0.80;;;12.70;99.90;;;;;;5072070;28;20254;-82
2023/01/06 00:15:01;;;;;;;1.95;1.25;;;12.80;99.90;;;;;;5070529;28;20281;-79
2023/01/06 00:17:26;;;;;;;4.30;1.08;;;12.80;99.90;;;;;;5072027;28;20167;-80
2023/01/06 00:19:52;;;;;;;2.90;1.45;;;12.80;99.90;;;;;;5072453;28;20231;-79
2023/01/06 00:22:17;;;;;;;1.48;0.90;;;12.70;99.90;;;;;;5070996;28;20166;-81
2023/01/06 00:24:43;;;;;;;3.10;1.00;;;12.70;99.90;;;;;;5071902;28;20190;-79
2023/01/06 00:27:09;;;;;;;7.82;1.20;;;12.70;99.90;;;;;;5072382;28;20206;-89
2023/01/06 00:29:35;;;;;;;1.52;1.02;;;12.60;99.90;;;;;;5072080;28;20188;-84
2023/01/06 00:32:01;;;;;;;2.25;0.82;;;12.40;99.90;;;;;;5071828;28;20199;-81
2023/01/06 00:34:28;;;;;;;3.22;1.42;;;12.50;99.90;;;;;;5072337;28;20194;-84
2023/01/06 00:36:54;;;;;;;3.15;0.82;;;12.40;99.90;;;;;;5073950;28;20619;-89
2023/01/06 00:39:19;;;;;;;2.63;1.00;;;12.50;99.90;;;;;;5073348;28;20174;-89
2023/01/06 00:42:03;;;;;;;2.97;1.20;;;12.50;99.90;;;;;;5077158;28;20157;-89
2023/01/06 00:44:33;;;;;;;3.97;1.10;;;12.60;99.90;;;;;;5075523;28;20231;-79
2023/01/06 00:46:59;;;;;;;6.13;1.10;;;12.60;99.90;;;;;;5075567;28;20209;-81
2023/01/06 00:49:25;;;;;;;4.15;1.20;;;12.70;99.90;;;;;;5074767;28;20250;-80
2023/01/06 00:51:52;;;;;;;2.00;1.60;;;12.60;99.90;;;;;;5075525;28;20638;-80
2023/01/06 00:54:18;;;;;;;4.10;1.00;;;12.70;99.90;;;;;;5075480;28;20208;-80
2023/01/06 00:56:46;;;;;;;5.80;1.20;;;12.70;99.90;;;;;;5074135;28;20175;-86
2023/01/06 00:59:14;;;;;;;2.35;0.82;;;12.80;99.90;;;;;;5073981;28;20253;-82
2023/01/06 01:01:40;;;;;;;6.28;1.05;;;12.60;99.90;;;;;;5074313;28;20705;-89
2023/01/06 01:04:07;;;;;;;2.03;1.20;;;12.70;99.90;;;;;;5076320;28;20334;-80
2023/01/06 01:06:33;;;;;;;4.53;1.73;;;12.80;99.90;;;;;;5075943;28;20205;-87
2023/01/06 01:08:59;;;;;;;1.02;0.75;;;12.70;99.90;;;;;;5075717;28;20166;-89
2023/01/06 01:14:11;;;;;;;4.97;0.82;;;12.80;99.90;;;;;;5075321;28;20198;-80
2023/01/06 01:16:39;;;;;;;2.58;0.95;;;12.70;99.90;;;;;;5074822;28;20181;-88
2023/01/06 01:19:05;;;;;;;4.18;1.23;;;12.60;99.90;;;;;;5076131;28;20163;-89
2023/01/06 01:21:31;;;;;;;2.05;0.90;;;12.80;99.90;;;;;;5078522;28;20175;-84
2023/01/06 01:23:56;;;;;;;2.28;0.82;;;12.60;99.90;;;;;;5086839;28;21045;-79
2023/01/06 01:26:22;;;;;;;4.72;1.13;;;12.50;99.90;;;;;;5089527;28;20228;-89
2023/01/06 01:28:47;;;;;;;2.75;0.98;;;12.40;99.90;;;;;;5075146;28;20593;-87
2023/01/06 01:31:14;;;;;;;3.30;1.00;;;12.40;99.90;;;;;;5074717;28;20581;-88
2023/01/06 01:33:41;;;;;;;3.00;1.00;;;12.30;99.90;;;;;;5074859;28;20190;-90
2023/01/06 01:36:09;;;;;;;4.53;1.00;;;12.40;99.90;;;;;;5074862;28;20173;-89
2023/01/06 01:38:35;;;;;;;4.38;1.00;;;12.30;99.90;;;;;;5075552;28;20204;-88
2023/01/06 01:41:01;;;;;;;3.45;1.60;;;12.30;99.90;;;;;;5074721;28;20174;-90
2023/01/06 01:43:47;;;;;;;5.03;1.13;;;12.30;99.90;;;;;;5074220;28;20206;-79
2023/01/06 01:46:22;;;;;;;2.40;0.90;;;12.30;99.90;;;;;;5072824;28;20221;-82
2023/01/06 01:48:49;;;;;;;1.05;0.77;;;12.40;99.90;;;;;;5074668;28;20219;-80
2023/01/06 01:51:19;;;;;;;1.60;1.30;;;12.40;99.90;;;;;;5074318;28;20221;-80
2023/01/06 01:53:50;;;;;;;3.38;0.95;;;12.50;99.90;;;;;;5074116;28;20263;-80
2023/01/06 01:56:21;;;;;;;2.38;0.93;;;12.50;99.90;;;;;;5074006;28;20166;-79
2023/01/06 01:58:59;;;;;;;9.18;0.73;;;12.30;99.90;;;;;;5072800;28;20745;-80
2023/01/06 02:01:25;;;;;;;4.68;1.00;;;12.30;99.90;;;;;;5073976;28;20174;-80
2023/01/06 02:03:51;;;;;;;1.02;0.77;;;12.30;99.90;;;;;;5074569;28;20227;-79
2023/01/06 02:06:21;;;;;;;1.23;0.90;;;12.20;99.90;;;;;;5079979;28;20293;-79
2023/01/06 02:09:11;;;;;;;5.90;1.08;;;12.20;99.90;;;;;;5076814;28;20158;-82
2023/01/06 02:11:38;;;;;;;1.40;1.02;;;12.30;99.90;;;;;;5077764;28;20167;-79
2023/01/06 02:14:15;;;;;;;2.70;0.90;;;12.30;99.90;;;;;;5075564;28;20178;-80
2023/01/06 02:17:05;;;;;;;1.40;0.90;;;12.40;99.90;;;;;;5078165;28;20181;-79
2023/01/06 02:19:58;;;;;;;1.55;0.80;;;12.40;99.90;;;;;;5079417;28;20198;-80
2023/01/06 02:22:59;;;;;;;3.78;1.38;;;12.30;99.90;;;;;;5082702;28;20220;-80
2023/01/06 02:25:42;;;;;;;3.63;0.80;;;12.20;99.90;;;;;;5082782;28;20202;-84
2023/01/06 02:28:33;;;;;;;6.05;1.05;;;12.10;99.90;;;;;;5081728;28;20269;-80
2023/01/06 02:31:17;;;;;;;3.00;0.77;;;12.10;99.90;;;;;;5077369;28;20250;-82
2023/01/06 02:33:50;;;;;;;1.67;0.90;;;12.00;99.90;;;;;;5076007;28;20186;-84
2023/01/06 02:36:47;;;;;;;3.05;1.17;;;12.10;99.90;;;;;;5075399;28;20166;-81
2023/01/06 02:39:40;;;;;;;3.60;1.00;;;12.10;99.90;;;;;;5075409;28;20182;-80
2023/01/06 02:42:24;;;;;;;1.90;1.00;;;12.10;99.90;;;;;;5076691;28;20183;-79
2023/01/06 02:44:53;;;;;;;5.25;1.25;;;12.00;99.90;;;;;;5076881;28;20218;-80
2023/01/06 02:47:26;;;;;;;3.92;1.10;;;12.00;99.90;;;;;;5078688;28;20202;-80
2023/01/06 02:50:16;;;;;;;3.17;0.82;;;12.00;99.90;;;;;;5076560;28;20194;-80
2023/01/06 02:52:51;;;;;;;0.93;0.82;;;12.10;99.90;;;;;;5075702;28;20166;-79
2023/01/06 02:55:34;;;;;;;4.90;1.10;;;12.10;99.90;;;;;;5075265;28;20510;-79
2023/01/06 02:58:20;;;;;;;7.18;0.88;;;12.00;99.90;;;;;;5075976;28;20174;-88
2023/01/06 03:00:51;;;;;;;2.03;0.88;;;12.10;99.90;;;;;;5079092;28;20162;-89
2023/01/06 03:03:21;;;;;;;3.50;0.60;;;12.10;99.90;;;;;;5078309;28;20197;-88
2023/01/06 03:05:52;;;;;;;2.63;0.73;;;12.10;99.90;;;;;;5078759;28;20202;-89
2023/01/06 03:08:24;;;;;;;0.98;0.70;;;12.00;99.90;;;;;;5078576;28;20197;-88
2023/01/06 03:10:52;;;;;;;2.83;0.52;;;11.90;99.90;;;;;;5080364;28;20238;-89
2023/01/06 03:13:23;;;;;;;1.75;0.85;;;11.90;99.90;;;;;;5078247;28;20975;-89
2023/01/06 03:15:49;;;;;;;1.83;0.80;;;12.00;99.90;;;;;;5076498;28;20215;-79
2023/01/06 03:18:14;;;;;;;2.20;0.63;;;11.90;99.90;;;;;;5073990;28;20174;-81
2023/01/06 03:20:40;;;;;;;0.50;0.50;;;11.90;99.90;;;;;;5073674;28;20634;-82
2023/01/06 03:23:06;;;;;;;3.05;0.60;;;11.90;99.90;;;;;;5076931;28;20317;-83
2023/01/06 03:25:32;;;;;;;2.78;1.00;;;11.90;99.90;;;;;;5079185;28;20538;-80
2023/01/06 03:27:57;;;;;;;0.77;0.77;;;12.00;99.90;;;;;;5084044;28;20180;-80
2023/01/06 03:30:32;;;;;;;1.88;0.68;;;12.00;99.90;;;;;;5074902;28;20186;-82
2023/01/06 03:33:22;;;;;;;2.33;0.80;;;12.00;99.90;;;;;;5077228;28;20692;-82
2023/01/06 03:36:12;;;;;;;1.98;0.93;;;11.90;99.90;;;;;;5075244;28;20300;-82
2023/01/06 03:38:54;;;;;;;1.75;0.73;;;12.00;99.90;;;;;;5074389;28;20321;-89
2023/01/06 03:44:34;;;;;;;1.20;0.80;;;12.10;99.90;;;;;;5074538;28;20209;-80
2023/01/06 03:47:09;;;;;;;3.03;0.77;;;12.00;99.90;;;;;;5073011;28;20596;-82
2023/01/06 03:49:49;;;;;;;0.93;0.80;;;12.00;99.90;;;;;;5071386;28;20540;-81
2023/01/06 03:52:32;;;;;;;1.02;0.40;;;12.00;99.90;;;;;;5073227;28;20254;-80
2023/01/06 03:55:20;;;;;;;2.05;0.80;;;12.00;99.90;;;;;;5072770;28;20225;-79
2023/01/06 03:57:50;;;;;;;2.55;1.13;;;11.90;99.90;;;;;;5071676;28;20631;-79
2023/01/06 04:00:25;;;;;;;1.63;0.90;;;11.90;99.90;;;;;;5071420;28;20186;-80
2023/01/06 04:02:50;;;;;;;2.08;0.90;;;11.90;99.90;;;;;;5072765;28;20250;-80
2023/01/06 04:05:19;;;;;;;1.45;1.35;;;12.00;99.90;;;;;;5072285;28;20206;-81
2023/01/06 04:07:45;;;;;;;0.93;0.60;;;12.00;99.90;;;;;;5071016;28;20210;-89
2023/01/06 04:10:12;;;;;;;0.52;0.47;;;11.90;99.90;;;;;;5072557;28;20219;-82
2023/01/06 04:12:38;;;;;;;1.33;0.73;;;11.90;99.90;;;;;;5072735;28;20174;-84
2023/01/06 04:15:10;;;;;;;3.70;0.85;;;11.90;99.90;;;;;;5074635;28;20255;-81
2023/01/06 04:17:37;;;;;;;0.85;0.60;;;11.80;99.90;;;;;;5076405;28;20167;-85
2023/01/06 04:20:04;;;;;;;1.13;0.70;;;11.70;99.90;;;;;;5076431;28;20163;-81
2023/01/06 04:22:30;;;;;;;3.95;0.60;;;11.80;99.90;;;;;;5076675;28;20155;-80
2023/01/06 04:24:56;;;;;;;4.72;0.88;;;11.90;99.90;;;;;;5076423;28;20608;-81
2023/01/06 04:27:21;;;;;;;2.35;0.70;;;11.90;99.90;;;;;;5075082;28;20221;-81
2023/01/06 04:29:48;;;;;;;1.95;0.98;;;12.00;99.90;;;;;;5075536;28;20202;-81
2023/01/06 04:32:14;;;;;;;2.13;0.68;;;11.80;99.90;;;;;;5076178;28;20703;-88
2023/01/06 04:34:39;;;;;;;1.65;0.68;;;11.80;99.90;;;;;;5076662;28;20226;-81
2023/01/06 04:37:05;;;;;;;2.42;0.80;;;11.80;99.90;;;;;;5076113;28;20174;-81
2023/01/06 04:39:30;;;;;;;0.68;0.60;;;11.90;99.90;;;;;;5075025;28;20185;-83
2023/01/06 04:41:56;;;;;;;0.55;0.55;;;11.90;99.90;;;;;;5075688;28;20182;-90
2023/01/06 04:44:22;;;;;;;2.10;0.63;;;11.90;99.90;;;;;;5077413;28;20178;-90
2023/01/06 04:46:47;;;;;;;1.33;0.60;;;11.70;99.90;;;;;;5076450;28;20249;-90
2023/01/06 04:49:13;;;;;;;1.25;0.65;;;11.70;99.90;;;;;;5076842;28;20154;-84
2023/01/06 04:51:38;;;;;;;1.20;0.68;;;11.70;99.90;;;;;;5077314;28;20167;-90
2023/01/06 04:54:04;;;;;;;6.10;0.70;;;11.60;99.90;;;;;;5077338;28;20193;-90
2023/01/06 04:56:30;;;;;;;1.27;0.75;;;11.70;99.90;;;;;;5077047;28;20177;-89
2023/01/06 04:58:56;;;;;;;0.43;0.43;;;11.70;99.90;;;;;;5077399;28;20174;-90
2023/01/06 05:01:23;;;;;;;0.82;0.60;;;11.70;99.90;;;;;;5076422;28;20220;-83
2023/01/06 05:03:49;;;;;;;1.75;0.68;;;11.80;99.90;;;;;;5075777;28;20722;-79
2023/01/06 05:06:15;;;;;;;1.58;0.60;;;11.80;99.90;;;;;;5086583;28;20226;-80
2023/01/06 05:08:43;;;;;;;4.68;0.70;;;11.70;99.90;;;;;;5078427;28;20213;-81
2023/01/06 05:11:17;;;;;;;0.50;0.50;;;11.80;99.90;;;;;;5077444;28;20174;-80
2023/01/06 05:13:43;;;;;;;0.50;0.50;;;11.80;99.90;;;;;;5081338;28;20190;-81
2023/01/06 05:16:15;;;;;;;0.95;0.50;;;11.90;99.90;;;;;;5076491;28;20649;-89
2023/01/06 05:18:41;;;;;;;0.77;0.73;;;11.90;99.90;;;;;;5077460;28;20162;-82
2023/01/06 05:21:07;;;;;;;0.75;0.60;;;11.90;99.90;;;;;;5079461;28;20167;-90
2023/01/06 05:23:32;;;;;;;0.60;0.55;;;12.10;99.90;;;;;;5083677;28;20193;-90
2023/01/06 05:25:59;;;;;;;3.88;0.82;;;12.10;99.90;;;;;;5098601;28;20202;-87
2023/01/06 05:28:27;;;;;;;0.75;0.75;;;12.00;99.90;;;;;;5097995;28;20263;-87
2023/01/06 05:31:03;;;;;;;0.88;0.50;;;11.90;99.90;;;;;;5080586;28;20208;-90
2023/01/06 05:33:30;;;;;;;2.15;0.80;;;11.90;99.90;;;;;;5079697;28;20277;-90
2023/01/06 05:35:58;;;;;;;2.35;0.90;;;12.00;99.90;;;;;;5080605;28;20706;-91
2023/01/06 05:38:24;;;;;;;3.65;0.77;;;12.00;99.90;;;;;;5080291;28;20511;-90
2023/01/06 05:40:50;;;;;;;0.98;0.60;;;11.90;99.90;;;;;;5079888;28;20165;-90
2023/01/06 05:43:16;;;;;;;0.73;0.70;;;11.90;99.90;;;;;;5083910;28;20206;-90
2023/01/06 05:45:42;;;;;;;0.60;0.60;;;12.00;99.90;;;;;;5080234;28;20634;-89
2023/01/06 05:48:07;;;;;;;1.38;0.95;;;12.00;99.90;;;;;;5079333;28;20620;-89
2023/01/06 05:50:33;;;;;;;1.85;0.68;;;12.10;99.90;;;;;;5082835;28;20528;-90
2023/01/06 05:52:58;;;;;;;3.90;0.90;;;12.00;99.90;;;;;;5079290;28;20319;-88
2023/01/06 05:55:24;;;;;;;1.30;0.70;;;11.90;99.90;;;;;;5079056;28;20174;-89
2023/01/06 05:57:50;;;;;;;0.55;0.55;;;11.90;99.90;;;;;;5083755;28;20189;-88
2023/01/06 06:00:24;;;;;;;0.73;0.55;;;11.90;99.90;;;;;;5082634;28;20634;-88
2023/01/06 06:02:50;;;;;;;0.90;0.45;;;12.10;99.90;;;;;;5084871;28;20167;-89
2023/01/06 06:05:15;;;;;;;0.40;0.40;;;12.10;99.90;;;;;;5081265;28;20587;-88
2023/01/06 06:07:41;;;;;;;1.52;0.85;;;12.10;99.90;;;;;;5080630;28;20205;-89
2023/01/06 06:10:08;;;;;;;1.15;0.40;;;12.20;99.90;;;;;;5083631;28;20170;-90
2023/01/06 06:12:36;;;;;;;0.38;0.38;;;12.20;99.90;;;;;;5080455;28;20170;-89
2023/01/06 06:15:03;;;;;;;0.60;0.60;;;12.20;99.90;;;;;;5080177;28;20209;-90
2023/01/06 06:17:30;;;;;;;1.17;0.52;;;12.20;99.90;;;;;;5083344;28;20178;-89
2023/01/06 06:19:56;;;;;;;0.63;0.57;;;12.10;99.90;;;;;;5086403;28;20167;-90
2023/01/06 06:22:24;;;;;;;3.83;0.55;;;12.00;99.90;;;;;;5088254;28;20192;-86
2023/01/06 06:24:50;;;;;;;1.13;0.65;;;12.10;99.90;;;;;;5090738;28;20190;-89
2023/01/06 06:27:18;;;;;;;0.50;0.50;;;12.10;99.90;;;;;;5081927;28;20202;-85
2023/01/06 06:29:44;;;;;;;0.57;0.55;;;12.10;99.90;;;;;;5080845;28;20212;-89
2023/01/06 06:32:09;;;;;;;1.00;0.63;;;12.30;99.90;;;;;;5079939;28;20171;-84
2023/01/06 06:34:35;;;;;;;0.60;0.50;;;12.10;99.90;;;;;;5081356;28;20193;-89
2023/01/06 06:37:01;;;;;;;0.50;0.50;;;12.10;99.90;;;;;;5080026;28;20171;-89
2023/01/06 06:39:27;;;;;;;1.55;0.60;;;12.10;99.90;;;;;;5080572;28;20163;-90
2023/01/06 06:41:53;;;;;;;1.08;0.70;;;12.00;99.90;;;;;;5080851;28;20178;-88
2023/01/06 06:44:19;;;;;;;0.50;0.50;;;12.10;99.90;;;;;;5080315;28;20190;-90
2023/01/06 06:46:44;;;;;;;0.70;0.52;;;12.00;99.90;;;;;;5082351;28;20223;-89
2023/01/06 06:49:10;;;;;;;0.40;0.40;;;12.10;99.90;;;;;;5080029;28;20611;-88
2023/01/06 06:51:35;;;;;;;2.55;0.40;;;12.10;99.90;;;;;;5080433;28;20170;-90
2023/01/06 06:54:02;;;;;;;0.55;0.55;;;12.00;99.90;;;;;;5077516;28;20630;-89
2023/01/06 06:56:28;;;;;;;0.90;0.60;;;12.00;99.90;;;;;;5075977;28;20226;-88
2023/01/06 06:58:53;;;;;;;3.30;0.50;;;12.00;99.90;;;;;;5075998;28;20197;-89
2023/01/06 07:01:20;;;;;;;0.73;0.73;;;12.00;99.90;;;;;;5074482;28;20189;-89
2023/01/06 07:03:46;;;;;;;0.50;0.50;;;12.00;99.90;;;;;;5075591;28;20655;-89
2023/01/06 07:06:15;;;;;;;0.85;0.55;;;12.10;99.90;;;;;;5075550;28;20202;-89
2023/01/06 07:08:45;;;;;;;2.60;0.60;;;12.10;99.90;;;;;;5074415;28;20163;-89
2023/01/06 07:11:11;;;;;;;0.55;0.55;;;12.20;99.90;;;;;;5075758;28;20171;-90
2023/01/06 07:13:37;;;;;;;0.40;0.40;;;12.10;99.90;;;;;;5074928;28;20189;-89
2023/01/06 07:16:03;;;;;;;3.13;0.60;;;12.10;99.90;;;;;;5075441;28;20253;-91
2023/01/06 07:18:29;;;;;;;1.85;0.80;;;12.10;99.90;;;;;;5074858;28;20159;-86
2023/01/06 07:20:54;;;;;;;1.45;0.80;;;12.10;99.90;;;;;;5074605;28;20639;-89
2023/01/06 07:23:21;;;;;;;3.13;0.63;;;12.10;99.90;;;;;;5074171;28;20269;-88
2023/01/06 07:25:55;;;;;;;0.60;0.60;;;12.20;99.90;;;;;;5075300;28;20167;-89
2023/01/06 07:28:21;;;;;;;0.50;0.50;;;12.00;99.90;;;;;;5074785;28;20159;-89
2023/01/06 07:30:47;;;;;;;1.15;0.75;;;12.10;99.90;;;;;;5075255;28;20189;-89
2023/01/06 07:33:13;;;;;;;0.70;0.70;;;12.00;99.90;;;;;;5075040;28;20190;-89
2023/01/06 07:35:38;;;;;;;0.70;0.70;;;11.90;99.90;;;;;;5073242;28;20193;-89
2023/01/06 07:38:05;;;;;;;4.53;0.82;;;11.80;99.90;;;;;;5074354;28;20615;-90
2023/01/06 07:40:31;;;;;;;0.57;0.57;;;11.70;99.90;;;;;;5072873;28;20215;-82
2023/01/06 07:42:56;;;;;;;0.68;0.68;;;11.80;99.90;;;;;;5074216;28;20174;-87
2023/01/06 07:45:22;;;;;;;0.85;0.65;;;11.80;99.90;;;;;;5074621;28;20174;-89
2023/01/06 07:47:47;;;;;;;2.20;0.70;;;11.70;99.90;;;;;;5075067;28;20210;-80
2023/01/06 07:50:13;;;;;;;0.80;0.80;;;11.80;99.90;;;;;;5078855;28;20166;-85
2023/01/06 07:52:39;;;;;;;1.23;0.90;;;11.70;99.90;;;;;;5081570;28;20253;-87
2023/01/06 07:55:05;;;;;;;2.47;0.70;;;11.80;99.90;;;;;;5080902;28;20178;-88
2023/01/06 07:57:30;;;;;;;0.93;0.93;;;11.80;99.90;;;;;;5080723;28;20171;-86
2023/01/06 07:59:56;;;;;;;0.70;0.70;;;11.90;99.90;;;;;;5080845;28;20185;-82
2023/01/06 08:02:22;;;;;;;0.63;0.63;;;11.90;99.90;;;;;;5079787;28;20201;-88
2023/01/06 08:04:48;;;;;;;0.90;0.80;;;11.90;99.90;;;;;;5079973;28;20278;-85
2023/01/06 08:07:15;;;;;;;0.90;0.90;;;12.00;99.90;;;;;;5081202;28;20281;-88
2023/01/06 08:09:40;;;;;;;0.68;0.68;;;12.00;99.90;;;;;;5084347;28;20158;-89
2023/01/06 08:12:06;;;;;;;1.23;1.05;;;12.00;99.90;;;;;;5093285;28;20519;-89
2023/01/06 08:14:32;;;;;;;0.98;0.98;;;12.20;99.90;;;;;;5097507;28;20202;-88
2023/01/06 08:16:57;;;;;;;1.02;0.93;;;12.30;99.90;;;;;;5098129;28;20196;-84
2023/01/06 08:19:23;;;;;;;1.33;1.17;;;12.20;99.90;;;;;;5101348;28;20169;-84
2023/01/06 08:21:49;;;;;;;4.13;1.05;;;12.20;99.90;;;;;;5097843;28;20205;-86
2023/01/06 08:24:14;;;;;;;1.20;1.10;;;12.10;99.90;;;;;;5099829;28;20190;-89
2023/01/06 08:26:40;;;;;;;2.80;1.30;;;12.10;99.90;;;;;;5098895;28;20210;-91
2023/01/06 08:29:07;;;;;;;0.95;0.93;;;12.20;99.90;;;;;;5101538;28;20208;-88
2023/01/06 08:31:33;;;;;;;2.22;1.30;;;12.10;99.90;;;;;;5099504;28;20230;-86
2023/01/06 08:33:58;;;;;;;6.72;1.20;;;12.20;99.90;;;;;;5100226;28;20186;-87
2023/01/06 08:36:24;;;;;;;1.05;0.95;;;12.20;99.90;;;;;;5101837;28;20177;-87
2023/01/06 08:38:50;;;;;;;4.70;1.08;;;12.30;99.90;;;;;;5102773;28;20167;-87
2023/01/06 08:41:16;;;;;;;1.08;0.90;;;12.50;99.90;;;;;;5100167;28;20170;-88
2023/01/06 08:43:44;;;;;;;1.17;1.08;;;12.40;99.90;;;;;;5100611;28;20201;-88
2023/01/06 08:46:12;;;;;;;3.38;1.40;;;12.40;99.90;;;;;;5100882;28;20198;-84
2023/01/06 08:48:38;;;;;;;1.02;0.95;;;12.30;99.90;;;;;;5101288;28;20154;-89
2023/01/06 08:51:05;;;;;;;1.95;1.17;;;12.40;99.90;;;;;;5099418;28;20150;-86
2023/01/06 08:53:32;;;;;;;8.95;1.00;;;12.40;99.90;;;;;;5099540;28;20186;-92
2023/01/06 08:55:58;;;;;;;2.78;1.30;;;12.30;99.90;;;;;;5095734;28;20196;-79
2023/01/06 08:58:24;;;;;;;7.15;1.33;;;12.20;99.90;;;;;;5087653;28;20183;-79
2023/01/06 09:00:50;;;;;;;1.67;1.17;;;12.20;99.90;;;;;;5076743;28;20176;-79
2023/01/06 09:03:16;;;;;;;4.80;1.55;;;12.20;99.90;;;;;;5075971;28;20191;-79
2023/01/06 09:05:41;;;;;;;3.47;1.30;;;12.20;99.90;;;;;;5076809;28;20202;-80
2023/01/06 09:08:07;;;;;;;2.40;1.25;;;12.20;99.90;;;;;;5075397;28;20174;-78
2023/01/06 09:10:36;;;;;;;2.92;1.15;;;12.30;99.90;;;;;;5076555;28;20171;-79
2023/01/06 09:13:02;;;;;;;1.20;1.10;;;12.40;99.90;;;;;;5075510;28;20169;-78
2023/01/06 09:15:28;;;;;;;0.98;0.95;;;12.30;99.90;;;;;;5075967;28;20158;-79
2023/01/06 09:17:54;;;;;;;1.25;1.15;;;12.30;99.90;;;;;;5074602;28;20170;-79
2023/01/06 09:20:19;;;;;;;1.58;1.30;;;12.30;99.90;;;;;;5073898;28;20171;-79
2023/01/06 09:22:45;;;;;;;1.15;1.05;;;12.40;99.90;;;;;;5075545;28;20163;-79
2023/01/06 09:25:11;;;;;;;2.00;1.17;;;12.60;99.90;;;;;;5075495;28;20186;-79
2023/01/06 09:27:36;;;;;;;1.40;1.30;;;12.60;99.90;;;;;;5075285;28;20202;-80
2023/01/06 09:30:03;;;;;;;1.67;1.58;;;12.60;99.90;;;;;;5074897;28;20538;-80
2023/01/06 09:32:29;;;;;;;7.15;1.52;;;12.40;99.90;;;;;;5074857;28;20155;-82
2023/01/06 09:34:54;;;;;;;1.60;1.50;;;12.30;99.90;;;;;;5075323;28;20271;-88
2023/01/06 09:37:20;;;;;;;1.40;1.35;;;12.30;99.90;;;;;;5075381;28;20228;-85
2023/01/06 09:39:46;;;;;;;2.63;1.30;;;12.20;99.90;;;;;;5073221;28;20261;-81
2023/01/06 09:42:35;;;;;;;1.60;1.50;;;12.20;99.90;;;;;;5072602;28;20654;-80
2023/01/06 09:45:06;;;;;;;3.65;1.73;;;12.20;99.90;;;;;;5073213;28;20281;-79
2023/01/06 09:47:45;;;;;;;1.73;1.63;;;12.20;99.90;;;;;;5074794;28;20242;-80
2023/01/06 09:50:26;;;;;;;1.45;1.35;;;12.20;99.90;;;;;;5074827;28;20197;-80
2023/01/06 09:52:56;;;;;;;4.07;1.73;;;12.30;99.90;;;;;;5073330;28;20245;-79
2023/01/06 09:55:37;;;;;;;1.98;1.80;;;12.30;99.90;;;;;;5074414;28;20249;-79
2023/01/06 09:58:13;;;;;;;1.67;1.33;;;12.20;99.90;;;;;;5074250;28;20302;-80
2023/01/06 10:00:41;;;;;;;1.35;1.30;;;12.30;99.90;;;;;;5073209;28;20178;-80
2023/01/06 10:03:16;;;;;;;2.08;1.10;;;12.40;99.90;;;;;;5074546;28;20247;-80
2023/01/06 10:05:47;;;;;;;1.17;1.10;;;12.40;99.90;;;;;;5074182;28;20170;-80
2023/01/06 10:08:45;;;;;;;1.83;1.65;;;12.40;99.90;;;;;;5073060;28;20515;-80
2023/01/06 10:11:18;;;;;;;1.65;1.55;;;12.30;99.90;;;;;;5072537;28;20170;-80
2023/01/06 10:13:55;;;;;;;1.90;1.58;;;12.50;99.90;;;;;;5072328;28;20655;-83
2023/01/06 10:16:42;;;;;;;1.60;1.50;;;12.70;99.90;;;;;;5072425;28;20216;-80
2023/01/06 10:19:55;;;;;;;5.72;1.77;;;12.50;99.90;;;;;;5072917;28;20682;-80
2023/01/06 10:22:43;;;;;;;2.00;1.83;;;12.60;99.90;;;;;;5055512;28;20179;-83
2023/01/06 10:25:31;;;;;;;1.50;1.40;;;12.70;99.90;;;;;;5055518;28;20198;-82
2023/01/06 10:28:12;;;;;;;1.52;1.30;;;12.60;99.90;;;;;;5067666;28;20264;-81
2023/01/06 10:30:49;;;;;;;4.88;1.42;;;12.50;99.90;;;;;;5073020;28;20174;-82
2023/01/06 10:33:32;;;;;;;1.65;1.55;;;12.70;99.90;;;;;;5073745;28;20186;-80
2023/01/06 10:35:59;;;;;;;3.33;1.20;;;12.80;99.90;;;;;;5072058;28;20642;-79
2023/01/06 10:38:33;;;;;;;2.90;1.42;;;12.80;99.90;;;;;;5073440;28;20158;-80
2023/01/06 10:41:31;;;;;;;3.38;1.88;;;12.70;99.90;;;;;;5073736;28;20159;-82
2023/01/06 10:43:57;;;;;;;1.35;1.25;;;12.60;99.90;;;;;;5073021;28;20257;-79
2023/01/06 10:46:30;;;;;;;6.63;1.45;;;12.70;99.90;;;;;;5069110;28;20667;-83
2023/01/06 10:48:55;;;;;;;4.05;1.40;;;12.90;99.90;;;;;;5053984;28;20229;-88
2023/01/06 10:51:41;;;;;;;1.50;1.40;;;13.10;99.90;;;;;;5053466;28;20171;-89
2023/01/06 10:54:12;;;;;;;1.48;1.10;;;13.00;99.90;;;;;;5053260;28;20497;-81
2023/01/06 10:56:44;;;;;;;1.48;1.13;;;12.90;99.90;;;;;;5072614;28;20217;-81
2023/01/06 10:59:10;;;;;;;1.33;1.23;;;13.00;99.90;;;;;;5073674;28;20273;-80
2023/01/06 11:01:48;;;;;;;0.93;0.93;;;13.10;99.90;;;;;;5071910;28;20257;-79
2023/01/06 11:04:16;;;;;;;1.08;0.98;;;13.10;99.90;;;;;;5071729;28;20281;-79
2023/01/06 11:06:56;;;;;;;1.58;1.23;;;12.80;99.90;;;;;;5073037;28;20229;-79
2023/01/06 11:09:43;;;;;;;1.55;1.30;;;12.60;99.90;;;;;;5073087;28;20166;-79
2023/01/06 11:12:17;;;;;;;0.80;0.80;;;12.70;99.90;;;;;;5071912;28;20235;-79
2023/01/06 11:15:00;;;;;;;1.02;1.00;;;12.80;99.90;;;;;;5071781;28;20277;-79
2023/01/06 11:17:27;;;;;;;0.90;0.90;;;12.80;99.90;;;;;;5073423;28;20166;-80
2023/01/06 11:20:12;;;;;;;0.88;0.88;;;12.90;99.90;;;;;;5071772;28;20173;-80
2023/01/06 11:22:41;;;;;;;1.45;0.90;;;13.00;99.90;;;;;;5072904;28;20254;-80
2023/01/06 11:25:19;;;;;;;0.82;0.82;;;13.00;99.90;;;;;;5073909;28;20198;-79
2023/01/06 11:28:07;;;;;;;0.90;0.90;;;13.20;99.90;;;;;;5073927;28;20212;-82
2023/01/06 11:30:39;;;;;;;0.90;0.90;;;13.30;99.90;;;;;;5080251;28;20138;-80
2023/01/06 11:33:19;;;;;;;0.70;0.70;;;13.20;99.90;;;;;;5079001;28;20162;-80
2023/01/06 11:35:45;;;;;;;0.95;0.95;;;13.20;99.90;;;;;;5085047;28;20167;-79
2023/01/06 11:38:16;;;;;;;1.35;1.08;;;13.20;99.90;;;;;;5087661;28;20213;-80
2023/01/06 11:40:44;;;;;;;2.40;1.30;;;13.20;99.90;;;;;;5073090;28;20190;-80
2023/01/06 11:43:24;;;;;;;1.10;1.10;;;13.30;99.90;;;;;;5072367;28;20209;-80
2023/01/06 11:45:56;;;;;;;0.88;0.88;;;13.20;99.90;;;;;;5072459;28;20629;-82
2023/01/06 11:48:30;;;;;;;1.70;1.30;;;13.10;99.90;;;;;;5072539;28;20167;-79
2023/01/06 11:50:58;;;;;;;1.45;1.20;;;13.00;99.90;;;;;;5071341;28;20276;-80
2023/01/06 11:53:24;;;;;;;1.60;1.15;;;13.10;99.90;;;;;;5072672;28;20643;-81
2023/01/06 11:56:01;;;;;;;1.23;1.13;;;13.00;99.90;;;;;;5072036;28;20215;-80
2023/01/06 11:58:47;;;;;;;1.98;1.10;;;13.10;99.90;;;;;;5052457;28;20250;-79
2023/01/06 12:01:40;;;;;;;1.27;1.17;;;13.10;99.90;;;;;;5052024;28;20167;-80
2023/01/06 12:04:43;;;;;;;1.45;1.35;;;13.10;99.90;;;;;;5052144;28;20211;-80
2023/01/06 12:07:32;;;;;;;2.10;1.50;;;12.80;99.90;;;;;;5047023;28;20206;-80
2023/01/06 12:10:09;;;;;;;2.53;1.33;;;12.90;99.90;;;;;;5052257;28;20167;-80
2023/01/06 12:12:35;;;;;;;1.23;1.13;;;13.10;99.90;;;;;;5052584;28;20249;-80
2023/01/06 12:15:00;;;;;;;1.42;1.20;;;13.00;99.90;;;;;;5052792;28;20264;-81
2023/01/06 12:17:53;;;;;;;7.03;2.13;;;12.90;99.90;;;;;;5052998;28;20175;-81
2023/01/06 12:20:27;;;;;;;2.58;2.13;;;12.90;99.90;;;;;;5051821;28;20171;-84
2023/01/06 12:22:56;;;;;;;2.00;1.90;;;12.80;99.90;;;;;;5053339;28;20500;-81
2023/01/06 12:25:37;;;;;;;2.95;2.33;;;12.80;99.90;;;;;;5050708;28;20171;-80
2023/01/06 12:28:20;;;;;;;2.33;2.08;;;12.80;99.90;;;;;;5052060;28;20207;-82
2023/01/06 12:31:09;;;;;;;3.50;1.50;;;12.90;99.90;;;;;;5050786;28;20171;-81
2023/01/06 12:33:49;;;;;;;2.55;2.13;;;13.10;99.90;;;;;;5052045;28;20319;-81
2023/01/06 12:36:53;;;;;;;4.00;2.53;;;13.00;99.90;;;;;;5053260;28;20167;-89
2023/01/06 12:39:26;;;;;;;6.65;1.80;;;13.00;99.90;;;;;;5053040;28;20274;-82
2023/01/06 12:42:07;;;;;;;1.80;1.67;;;13.20;99.90;;;;;;5055545;28;20167;-81
2023/01/06 12:44:55;;;;;;;1.83;1.73;;;13.20;99.90;;;;;;5057104;28;20217;-86
2023/01/06 12:47:27;;;;;;;1.75;1.45;;;13.10;99.90;;;;;;5056789;28;20780;-82
2023/01/06 12:50:01;;;;;;;2.63;2.30;;;13.10;99.90;;;;;;5056372;28;20175;-81
2023/01/06 12:52:48;;;;;;;3.28;2.45;;;13.20;99.90;;;;;;5056614;28;20163;-80
2023/01/06 12:55:27;;;;;;;2.17;1.90;;;13.40;99.90;;;;;;5072110;28;20171;-90
2023/01/06 12:57:58;;;;;;;1.80;1.70;;;13.40;99.90;;;;;;5072611;28;20574;-81
2023/01/06 13:00:45;;;;;;;2.08;1.70;;;13.30;99.90;;;;;;5074557;28;20192;-83
2023/01/06 13:03:41;;;;;;;5.68;1.92;;;13.40;99.90;;;;;;5076330;28;20202;-82
2023/01/06 13:06:33;;;;;;;2.42;1.80;;;13.40;99.90;;;;;;5076194;28;20225;-90
2023/01/06 13:09:17;;;;;;;7.85;2.63;;;13.50;99.90;;;;;;5056752;28;20178;-80
2023/01/06 13:12:03;;;;;;;5.68;2.95;;;13.60;99.90;;;;;;5058315;28;20178;-81
2023/01/06 13:14:59;;;;;;;5.72;2.40;;;13.60;99.90;;;;;;5074073;28;20271;-81